<?xml version="1.0" encoding="UTF-8" standalone="no" ?>
<gpx xmlns="http://www.topografix.com/GPX/1/1" xmlns:xsi="http://www.w3.org/2001/XMLSchema-instance" xsi:schemaLocation="http://www.topografix.com/GPX/1/1 http://www.topografix.com/GPX/1/1/gpx.xsd" version="1.1" creator="VisuGPX - https://www.visugpx.com">
  <metadata>
    <name>Redon_Chateaulin</name>
    <desc><![CDATA[Randonnée cyclotouriste de Redon à Châteaulin par le chemin de halage du canal de Nantes à Brest avec quelques échappées vers Rostrenen, Carhaix et Pleyben.]]></desc>
  </metadata>
  <trk>
    <name><![CDATA[ACTIVE LOG 004]]></name>
    <trkseg>
      <trkpt lat="47.95214" lon="-2.57303">
        <ele>24.170288085938</ele>
        <time>2012-04-16T08:19:35Z</time>
      </trkpt>
      <trkpt lat="47.95215" lon="-2.57309">
        <ele>34.744873046875</ele>
        <time>2012-04-16T08:22:09Z</time>
      </trkpt>
      <trkpt lat="47.95217" lon="-2.57316">
        <ele>35.225463867188</ele>
        <time>2012-04-16T08:22:14Z</time>
      </trkpt>
      <trkpt lat="47.95224" lon="-2.57328">
        <ele>36.186767578125</ele>
        <time>2012-04-16T08:22:31Z</time>
      </trkpt>
      <trkpt lat="47.95227" lon="-2.57328">
        <ele>36.66748046875</ele>
        <time>2012-04-16T08:23:45Z</time>
      </trkpt>
      <trkpt lat="47.95236" lon="-2.57331">
        <ele>37.628662109375</ele>
        <time>2012-04-16T08:24:03Z</time>
      </trkpt>
      <trkpt lat="47.95247" lon="-2.5732">
        <ele>38.109375</ele>
        <time>2012-04-16T08:24:15Z</time>
      </trkpt>
      <trkpt lat="47.95266" lon="-2.57235">
        <ele>38.590087890625</ele>
        <time>2012-04-16T08:24:32Z</time>
      </trkpt>
      <trkpt lat="47.95283" lon="-2.57048">
        <ele>37.148071289062</ele>
        <time>2012-04-16T08:25:00Z</time>
      </trkpt>
      <trkpt lat="47.95277" lon="-2.56908">
        <ele>37.148071289062</ele>
        <time>2012-04-16T08:25:20Z</time>
      </trkpt>
      <trkpt lat="47.95246" lon="-2.56764">
        <ele>37.628662109375</ele>
        <time>2012-04-16T08:25:43Z</time>
      </trkpt>
      <trkpt lat="47.95226" lon="-2.56682">
        <ele>37.628662109375</ele>
        <time>2012-04-16T08:25:57Z</time>
      </trkpt>
      <trkpt lat="47.95215" lon="-2.56638">
        <ele>37.148071289062</ele>
        <time>2012-04-16T08:26:09Z</time>
      </trkpt>
      <trkpt lat="47.95289" lon="-2.56591">
        <ele>37.628662109375</ele>
        <time>2012-04-16T08:26:24Z</time>
      </trkpt>
      <trkpt lat="47.95406" lon="-2.56552">
        <ele>37.628662109375</ele>
        <time>2012-04-16T08:26:52Z</time>
      </trkpt>
      <trkpt lat="47.95415" lon="-2.56549">
        <ele>37.148071289062</ele>
        <time>2012-04-16T08:26:54Z</time>
      </trkpt>
      <trkpt lat="47.95416" lon="-2.56548">
        <ele>37.148071289062</ele>
        <time>2012-04-16T08:26:59Z</time>
      </trkpt>
      <trkpt lat="47.95444" lon="-2.56553">
        <ele>36.66748046875</ele>
        <time>2012-04-16T08:27:06Z</time>
      </trkpt>
      <trkpt lat="47.95442" lon="-2.56561">
        <ele>37.148071289062</ele>
        <time>2012-04-16T08:27:09Z</time>
      </trkpt>
      <trkpt lat="47.95436" lon="-2.56562">
        <ele>37.148071289062</ele>
        <time>2012-04-16T08:27:11Z</time>
      </trkpt>
      <trkpt lat="47.95426" lon="-2.56584">
        <ele>36.66748046875</ele>
        <time>2012-04-16T08:27:20Z</time>
      </trkpt>
      <trkpt lat="47.95398" lon="-2.56555">
        <ele>34.744873046875</ele>
        <time>2012-04-16T08:27:29Z</time>
      </trkpt>
      <trkpt lat="47.95382" lon="-2.56592">
        <ele>34.26416015625</ele>
        <time>2012-04-16T08:27:32Z</time>
      </trkpt>
      <trkpt lat="47.95382" lon="-2.56678">
        <ele>34.744873046875</ele>
        <time>2012-04-16T08:27:48Z</time>
      </trkpt>
      <trkpt lat="47.95382" lon="-2.56734">
        <ele>35.7060546875</ele>
        <time>2012-04-16T08:27:57Z</time>
      </trkpt>
      <trkpt lat="47.95382" lon="-2.5691">
        <ele>35.225463867188</ele>
        <time>2012-04-16T08:28:23Z</time>
      </trkpt>
      <trkpt lat="47.9537" lon="-2.57017">
        <ele>37.148071289062</ele>
        <time>2012-04-16T08:28:39Z</time>
      </trkpt>
      <trkpt lat="47.95356" lon="-2.5709">
        <ele>36.66748046875</ele>
        <time>2012-04-16T08:28:50Z</time>
      </trkpt>
      <trkpt lat="47.95352" lon="-2.57109">
        <ele>36.186767578125</ele>
        <time>2012-04-16T08:28:53Z</time>
      </trkpt>
      <trkpt lat="47.95348" lon="-2.57129">
        <ele>36.186767578125</ele>
        <time>2012-04-16T08:28:56Z</time>
      </trkpt>
      <trkpt lat="47.95339" lon="-2.57223">
        <ele>34.744873046875</ele>
        <time>2012-04-16T08:29:10Z</time>
      </trkpt>
      <trkpt lat="47.95339" lon="-2.57251">
        <ele>33.783447265625</ele>
        <time>2012-04-16T08:29:15Z</time>
      </trkpt>
      <trkpt lat="47.95313" lon="-2.57398">
        <ele>34.744873046875</ele>
        <time>2012-04-16T08:29:37Z</time>
      </trkpt>
      <trkpt lat="47.95311" lon="-2.57404">
        <ele>34.744873046875</ele>
        <time>2012-04-16T08:29:38Z</time>
      </trkpt>
      <trkpt lat="47.95306" lon="-2.57432">
        <ele>34.744873046875</ele>
        <time>2012-04-16T08:29:43Z</time>
      </trkpt>
      <trkpt lat="47.95309" lon="-2.57492">
        <ele>35.225463867188</ele>
        <time>2012-04-16T08:29:54Z</time>
      </trkpt>
      <trkpt lat="47.95328" lon="-2.57496">
        <ele>34.26416015625</ele>
        <time>2012-04-16T08:29:58Z</time>
      </trkpt>
      <trkpt lat="47.95335" lon="-2.57492">
        <ele>32.822265625</ele>
        <time>2012-04-16T08:30:04Z</time>
      </trkpt>
      <trkpt lat="47.9533" lon="-2.57509">
        <ele>34.744873046875</ele>
        <time>2012-04-16T08:30:13Z</time>
      </trkpt>
      <trkpt lat="47.95326" lon="-2.57511">
        <ele>37.148071289062</ele>
        <time>2012-04-16T08:30:20Z</time>
      </trkpt>
      <trkpt lat="47.95325" lon="-2.57511">
        <ele>36.66748046875</ele>
        <time>2012-04-16T08:30:25Z</time>
      </trkpt>
      <trkpt lat="47.95322" lon="-2.57513">
        <ele>37.628662109375</ele>
        <time>2012-04-16T08:30:30Z</time>
      </trkpt>
      <trkpt lat="47.95318" lon="-2.57515">
        <ele>38.590087890625</ele>
        <time>2012-04-16T08:30:33Z</time>
      </trkpt>
      <trkpt lat="47.95323" lon="-2.5755">
        <ele>38.590087890625</ele>
        <time>2012-04-16T08:30:39Z</time>
      </trkpt>
      <trkpt lat="47.95343" lon="-2.57629">
        <ele>39.070678710938</ele>
        <time>2012-04-16T08:30:59Z</time>
      </trkpt>
      <trkpt lat="47.95359" lon="-2.57706">
        <ele>40.032104492188</ele>
        <time>2012-04-16T08:31:16Z</time>
      </trkpt>
      <trkpt lat="47.95401" lon="-2.57861">
        <ele>39.070678710938</ele>
        <time>2012-04-16T08:31:44Z</time>
      </trkpt>
      <trkpt lat="47.95445" lon="-2.57941">
        <ele>38.590087890625</ele>
        <time>2012-04-16T08:32:01Z</time>
      </trkpt>
      <trkpt lat="47.95458" lon="-2.57964">
        <ele>38.109375</ele>
        <time>2012-04-16T08:32:06Z</time>
      </trkpt>
      <trkpt lat="47.95504" lon="-2.58043">
        <ele>36.66748046875</ele>
        <time>2012-04-16T08:32:22Z</time>
      </trkpt>
      <trkpt lat="47.95555" lon="-2.5813">
        <ele>35.7060546875</ele>
        <time>2012-04-16T08:32:40Z</time>
      </trkpt>
      <trkpt lat="47.95605" lon="-2.58215">
        <ele>34.26416015625</ele>
        <time>2012-04-16T08:32:58Z</time>
      </trkpt>
      <trkpt lat="47.95649" lon="-2.58292">
        <ele>32.822265625</ele>
        <time>2012-04-16T08:33:14Z</time>
      </trkpt>
      <trkpt lat="47.95687" lon="-2.58357">
        <ele>33.302856445312</ele>
        <time>2012-04-16T08:33:28Z</time>
      </trkpt>
      <trkpt lat="47.95724" lon="-2.58421">
        <ele>36.186767578125</ele>
        <time>2012-04-16T08:33:41Z</time>
      </trkpt>
      <trkpt lat="47.95751" lon="-2.58471">
        <ele>38.590087890625</ele>
        <time>2012-04-16T08:33:51Z</time>
      </trkpt>
      <trkpt lat="47.95778" lon="-2.58527">
        <ele>39.070678710938</ele>
        <time>2012-04-16T08:34:02Z</time>
      </trkpt>
      <trkpt lat="47.95807" lon="-2.58588">
        <ele>42.916015625</ele>
        <time>2012-04-16T08:34:13Z</time>
      </trkpt>
      <trkpt lat="47.95827" lon="-2.58641">
        <ele>43.877319335938</ele>
        <time>2012-04-16T08:34:23Z</time>
      </trkpt>
      <trkpt lat="47.95854" lon="-2.58718">
        <ele>41.954711914062</ele>
        <time>2012-04-16T08:34:36Z</time>
      </trkpt>
      <trkpt lat="47.95865" lon="-2.58747">
        <ele>40.993408203125</ele>
        <time>2012-04-16T08:34:41Z</time>
      </trkpt>
      <trkpt lat="47.95885" lon="-2.58807">
        <ele>40.512817382812</ele>
        <time>2012-04-16T08:34:51Z</time>
      </trkpt>
      <trkpt lat="47.95899" lon="-2.58879">
        <ele>39.55126953125</ele>
        <time>2012-04-16T08:35:03Z</time>
      </trkpt>
      <trkpt lat="47.95918" lon="-2.58927">
        <ele>39.070678710938</ele>
        <time>2012-04-16T08:35:11Z</time>
      </trkpt>
      <trkpt lat="47.95925" lon="-2.58943">
        <ele>37.148071289062</ele>
        <time>2012-04-16T08:35:14Z</time>
      </trkpt>
      <trkpt lat="47.95992" lon="-2.59056">
        <ele>40.512817382812</ele>
        <time>2012-04-16T08:35:39Z</time>
      </trkpt>
      <trkpt lat="47.95998" lon="-2.59066">
        <ele>40.512817382812</ele>
        <time>2012-04-16T08:35:41Z</time>
      </trkpt>
      <trkpt lat="47.96006" lon="-2.59095">
        <ele>40.512817382812</ele>
        <time>2012-04-16T08:35:46Z</time>
      </trkpt>
      <trkpt lat="47.96009" lon="-2.59123">
        <ele>40.512817382812</ele>
        <time>2012-04-16T08:35:50Z</time>
      </trkpt>
      <trkpt lat="47.96013" lon="-2.59166">
        <ele>41.954711914062</ele>
        <time>2012-04-16T08:35:56Z</time>
      </trkpt>
      <trkpt lat="47.96016" lon="-2.5925">
        <ele>39.55126953125</ele>
        <time>2012-04-16T08:36:08Z</time>
      </trkpt>
      <trkpt lat="47.96004" lon="-2.59374">
        <ele>38.109375</ele>
        <time>2012-04-16T08:36:30Z</time>
      </trkpt>
      <trkpt lat="47.96004" lon="-2.59454">
        <ele>38.590087890625</ele>
        <time>2012-04-16T08:36:42Z</time>
      </trkpt>
      <trkpt lat="47.96022" lon="-2.59533">
        <ele>38.590087890625</ele>
        <time>2012-04-16T08:36:55Z</time>
      </trkpt>
      <trkpt lat="47.96044" lon="-2.59654">
        <ele>38.109375</ele>
        <time>2012-04-16T08:37:15Z</time>
      </trkpt>
      <trkpt lat="47.96049" lon="-2.59768">
        <ele>38.109375</ele>
        <time>2012-04-16T08:37:32Z</time>
      </trkpt>
      <trkpt lat="47.96051" lon="-2.5983">
        <ele>37.628662109375</ele>
        <time>2012-04-16T08:37:41Z</time>
      </trkpt>
      <trkpt lat="47.96055" lon="-2.59931">
        <ele>37.148071289062</ele>
        <time>2012-04-16T08:37:57Z</time>
      </trkpt>
      <trkpt lat="47.96056" lon="-2.59949">
        <ele>38.109375</ele>
        <time>2012-04-16T08:38:00Z</time>
      </trkpt>
      <trkpt lat="47.96062" lon="-2.59977">
        <ele>37.628662109375</ele>
        <time>2012-04-16T08:38:05Z</time>
      </trkpt>
      <trkpt lat="47.96068" lon="-2.60004">
        <ele>38.109375</ele>
        <time>2012-04-16T08:38:09Z</time>
      </trkpt>
      <trkpt lat="47.96079" lon="-2.60055">
        <ele>39.070678710938</ele>
        <time>2012-04-16T08:38:17Z</time>
      </trkpt>
      <trkpt lat="47.96116" lon="-2.60222">
        <ele>40.032104492188</ele>
        <time>2012-04-16T08:38:44Z</time>
      </trkpt>
      <trkpt lat="47.96146" lon="-2.60378">
        <ele>39.55126953125</ele>
        <time>2012-04-16T08:39:08Z</time>
      </trkpt>
      <trkpt lat="47.96157" lon="-2.60507">
        <ele>40.512817382812</ele>
        <time>2012-04-16T08:39:28Z</time>
      </trkpt>
      <trkpt lat="47.96151" lon="-2.60531">
        <ele>40.032104492188</ele>
        <time>2012-04-16T08:39:32Z</time>
      </trkpt>
      <trkpt lat="47.9614" lon="-2.60561">
        <ele>40.032104492188</ele>
        <time>2012-04-16T08:39:37Z</time>
      </trkpt>
      <trkpt lat="47.96081" lon="-2.60652">
        <ele>39.55126953125</ele>
        <time>2012-04-16T08:39:55Z</time>
      </trkpt>
      <trkpt lat="47.95998" lon="-2.6072">
        <ele>38.590087890625</ele>
        <time>2012-04-16T08:40:16Z</time>
      </trkpt>
      <trkpt lat="47.95889" lon="-2.60786">
        <ele>38.109375</ele>
        <time>2012-04-16T08:40:42Z</time>
      </trkpt>
      <trkpt lat="47.95844" lon="-2.60874">
        <ele>38.109375</ele>
        <time>2012-04-16T08:41:01Z</time>
      </trkpt>
      <trkpt lat="47.9582" lon="-2.61014">
        <ele>38.109375</ele>
        <time>2012-04-16T08:41:24Z</time>
      </trkpt>
      <trkpt lat="47.95802" lon="-2.61195">
        <ele>38.109375</ele>
        <time>2012-04-16T08:41:52Z</time>
      </trkpt>
      <trkpt lat="47.958" lon="-2.61321">
        <ele>38.109375</ele>
        <time>2012-04-16T08:42:14Z</time>
      </trkpt>
      <trkpt lat="47.95796" lon="-2.61481">
        <ele>37.148071289062</ele>
        <time>2012-04-16T08:42:39Z</time>
      </trkpt>
      <trkpt lat="47.95793" lon="-2.6153">
        <ele>37.148071289062</ele>
        <time>2012-04-16T08:42:46Z</time>
      </trkpt>
      <trkpt lat="47.95787" lon="-2.61677">
        <ele>36.186767578125</ele>
        <time>2012-04-16T08:43:08Z</time>
      </trkpt>
      <trkpt lat="47.95796" lon="-2.61809">
        <ele>36.66748046875</ele>
        <time>2012-04-16T08:43:28Z</time>
      </trkpt>
      <trkpt lat="47.95849" lon="-2.61986">
        <ele>38.109375</ele>
        <time>2012-04-16T08:43:56Z</time>
      </trkpt>
      <trkpt lat="47.95891" lon="-2.62153">
        <ele>38.590087890625</ele>
        <time>2012-04-16T08:44:23Z</time>
      </trkpt>
      <trkpt lat="47.95895" lon="-2.62165">
        <ele>39.070678710938</ele>
        <time>2012-04-16T08:44:25Z</time>
      </trkpt>
      <trkpt lat="47.95973" lon="-2.62255">
        <ele>40.032104492188</ele>
        <time>2012-04-16T08:44:48Z</time>
      </trkpt>
      <trkpt lat="47.95991" lon="-2.62263">
        <ele>40.032104492188</ele>
        <time>2012-04-16T08:44:52Z</time>
      </trkpt>
      <trkpt lat="47.96028" lon="-2.62275">
        <ele>41.473999023438</ele>
        <time>2012-04-16T08:45:01Z</time>
      </trkpt>
      <trkpt lat="47.96111" lon="-2.62257">
        <ele>40.032104492188</ele>
        <time>2012-04-16T08:45:21Z</time>
      </trkpt>
      <trkpt lat="47.96186" lon="-2.62186">
        <ele>38.590087890625</ele>
        <time>2012-04-16T08:45:42Z</time>
      </trkpt>
      <trkpt lat="47.96283" lon="-2.62081">
        <ele>38.109375</ele>
        <time>2012-04-16T08:46:10Z</time>
      </trkpt>
      <trkpt lat="47.96379" lon="-2.62019">
        <ele>39.55126953125</ele>
        <time>2012-04-16T08:46:36Z</time>
      </trkpt>
      <trkpt lat="47.96499" lon="-2.61956">
        <ele>38.590087890625</ele>
        <time>2012-04-16T08:47:06Z</time>
      </trkpt>
      <trkpt lat="47.96533" lon="-2.61945">
        <ele>38.109375</ele>
        <time>2012-04-16T08:47:14Z</time>
      </trkpt>
      <trkpt lat="47.9655" lon="-2.61939">
        <ele>36.66748046875</ele>
        <time>2012-04-16T08:47:18Z</time>
      </trkpt>
      <trkpt lat="47.96554" lon="-2.61938">
        <ele>35.7060546875</ele>
        <time>2012-04-16T08:47:20Z</time>
      </trkpt>
      <trkpt lat="47.96554" lon="-2.61938">
        <ele>37.148071289062</ele>
        <time>2012-04-16T08:47:30Z</time>
      </trkpt>
      <trkpt lat="47.96561" lon="-2.61961">
        <ele>38.590087890625</ele>
        <time>2012-04-16T08:47:36Z</time>
      </trkpt>
      <trkpt lat="47.96571" lon="-2.61994">
        <ele>39.070678710938</ele>
        <time>2012-04-16T08:47:51Z</time>
      </trkpt>
      <trkpt lat="47.96618" lon="-2.6207">
        <ele>37.628662109375</ele>
        <time>2012-04-16T08:47:57Z</time>
      </trkpt>
      <trkpt lat="47.96628" lon="-2.62073">
        <ele>37.628662109375</ele>
        <time>2012-04-16T08:47:59Z</time>
      </trkpt>
      <trkpt lat="47.96678" lon="-2.62088">
        <ele>37.628662109375</ele>
        <time>2012-04-16T08:48:10Z</time>
      </trkpt>
      <trkpt lat="47.96769" lon="-2.6212">
        <ele>38.590087890625</ele>
        <time>2012-04-16T08:48:33Z</time>
      </trkpt>
      <trkpt lat="47.96797" lon="-2.62136">
        <ele>39.070678710938</ele>
        <time>2012-04-16T08:48:40Z</time>
      </trkpt>
      <trkpt lat="47.96818" lon="-2.62158">
        <ele>39.070678710938</ele>
        <time>2012-04-16T08:48:47Z</time>
      </trkpt>
      <trkpt lat="47.96898" lon="-2.62244">
        <ele>40.512817382812</ele>
        <time>2012-04-16T08:49:11Z</time>
      </trkpt>
      <trkpt lat="47.9696" lon="-2.62284">
        <ele>41.473999023438</ele>
        <time>2012-04-16T08:49:27Z</time>
      </trkpt>
      <trkpt lat="47.97005" lon="-2.62305">
        <ele>42.916015625</ele>
        <time>2012-04-16T08:49:39Z</time>
      </trkpt>
      <trkpt lat="47.9707" lon="-2.62334">
        <ele>41.954711914062</ele>
        <time>2012-04-16T08:49:55Z</time>
      </trkpt>
      <trkpt lat="47.97171" lon="-2.62384">
        <ele>43.396606445312</ele>
        <time>2012-04-16T08:50:20Z</time>
      </trkpt>
      <trkpt lat="47.97236" lon="-2.62399">
        <ele>43.396606445312</ele>
        <time>2012-04-16T08:50:35Z</time>
      </trkpt>
      <trkpt lat="47.97311" lon="-2.62415">
        <ele>42.916015625</ele>
        <time>2012-04-16T08:50:52Z</time>
      </trkpt>
      <trkpt lat="47.97401" lon="-2.62444">
        <ele>42.435424804688</ele>
        <time>2012-04-16T08:51:16Z</time>
      </trkpt>
      <trkpt lat="47.97463" lon="-2.62484">
        <ele>40.512817382812</ele>
        <time>2012-04-16T08:51:33Z</time>
      </trkpt>
      <trkpt lat="47.97507" lon="-2.62563">
        <ele>40.993408203125</ele>
        <time>2012-04-16T08:51:52Z</time>
      </trkpt>
      <trkpt lat="47.97579" lon="-2.62702">
        <ele>43.396606445312</ele>
        <time>2012-04-16T08:52:22Z</time>
      </trkpt>
      <trkpt lat="47.97596" lon="-2.62734">
        <ele>43.877319335938</ele>
        <time>2012-04-16T08:52:34Z</time>
      </trkpt>
      <trkpt lat="47.97629" lon="-2.62795">
        <ele>43.877319335938</ele>
        <time>2012-04-16T08:52:49Z</time>
      </trkpt>
      <trkpt lat="47.97665" lon="-2.62859">
        <ele>43.396606445312</ele>
        <time>2012-04-16T08:53:04Z</time>
      </trkpt>
      <trkpt lat="47.97699" lon="-2.62922">
        <ele>42.916015625</ele>
        <time>2012-04-16T08:53:17Z</time>
      </trkpt>
      <trkpt lat="47.97772" lon="-2.63055">
        <ele>44.838623046875</ele>
        <time>2012-04-16T08:53:43Z</time>
      </trkpt>
      <trkpt lat="47.97844" lon="-2.63187">
        <ele>46.76123046875</ele>
        <time>2012-04-16T08:54:09Z</time>
      </trkpt>
      <trkpt lat="47.97932" lon="-2.63346">
        <ele>48.203369140625</ele>
        <time>2012-04-16T08:54:39Z</time>
      </trkpt>
      <trkpt lat="47.98009" lon="-2.63489">
        <ele>47.722534179688</ele>
        <time>2012-04-16T08:55:08Z</time>
      </trkpt>
      <trkpt lat="47.98014" lon="-2.63498">
        <ele>48.203369140625</ele>
        <time>2012-04-16T08:55:10Z</time>
      </trkpt>
      <trkpt lat="47.98101" lon="-2.6366">
        <ele>46.76123046875</ele>
        <time>2012-04-16T08:55:41Z</time>
      </trkpt>
      <trkpt lat="47.98146" lon="-2.63743">
        <ele>48.203369140625</ele>
        <time>2012-04-16T08:55:57Z</time>
      </trkpt>
      <trkpt lat="47.98214" lon="-2.63868">
        <ele>48.683959960938</ele>
        <time>2012-04-16T08:56:22Z</time>
      </trkpt>
      <trkpt lat="47.98247" lon="-2.63929">
        <ele>48.203369140625</ele>
        <time>2012-04-16T08:56:34Z</time>
      </trkpt>
      <trkpt lat="47.98321" lon="-2.64066">
        <ele>45.799926757812</ele>
        <time>2012-04-16T08:57:03Z</time>
      </trkpt>
      <trkpt lat="47.98345" lon="-2.64114">
        <ele>43.877319335938</ele>
        <time>2012-04-16T08:57:16Z</time>
      </trkpt>
      <trkpt lat="47.98373" lon="-2.64185">
        <ele>41.954711914062</ele>
        <time>2012-04-16T08:57:28Z</time>
      </trkpt>
      <trkpt lat="47.98373" lon="-2.64212">
        <ele>41.473999023438</ele>
        <time>2012-04-16T08:57:33Z</time>
      </trkpt>
      <trkpt lat="47.98373" lon="-2.64239">
        <ele>41.954711914062</ele>
        <time>2012-04-16T08:57:38Z</time>
      </trkpt>
      <trkpt lat="47.98353" lon="-2.6437">
        <ele>40.993408203125</ele>
        <time>2012-04-16T08:58:03Z</time>
      </trkpt>
      <trkpt lat="47.98339" lon="-2.64522">
        <ele>40.032104492188</ele>
        <time>2012-04-16T08:58:27Z</time>
      </trkpt>
      <trkpt lat="47.98339" lon="-2.64561">
        <ele>40.512817382812</ele>
        <time>2012-04-16T08:58:33Z</time>
      </trkpt>
      <trkpt lat="47.98339" lon="-2.64587">
        <ele>39.070678710938</ele>
        <time>2012-04-16T08:58:37Z</time>
      </trkpt>
      <trkpt lat="47.98367" lon="-2.64718">
        <ele>44.358032226562</ele>
        <time>2012-04-16T08:58:55Z</time>
      </trkpt>
      <trkpt lat="47.98414" lon="-2.64847">
        <ele>42.916015625</ele>
        <time>2012-04-16T08:59:15Z</time>
      </trkpt>
      <trkpt lat="47.9846" lon="-2.64936">
        <ele>42.916015625</ele>
        <time>2012-04-16T08:59:32Z</time>
      </trkpt>
      <trkpt lat="47.98524" lon="-2.65024">
        <ele>43.877319335938</ele>
        <time>2012-04-16T08:59:50Z</time>
      </trkpt>
      <trkpt lat="47.98596" lon="-2.6509">
        <ele>44.358032226562</ele>
        <time>2012-04-16T09:00:07Z</time>
      </trkpt>
      <trkpt lat="47.98653" lon="-2.65127">
        <ele>45.799926757812</ele>
        <time>2012-04-16T09:00:19Z</time>
      </trkpt>
      <trkpt lat="47.9869" lon="-2.6513">
        <ele>46.280639648438</ele>
        <time>2012-04-16T09:00:27Z</time>
      </trkpt>
      <trkpt lat="47.98759" lon="-2.65117">
        <ele>45.799926757812</ele>
        <time>2012-04-16T09:00:42Z</time>
      </trkpt>
      <trkpt lat="47.98845" lon="-2.65094">
        <ele>44.358032226562</ele>
        <time>2012-04-16T09:01:01Z</time>
      </trkpt>
      <trkpt lat="47.9886" lon="-2.65099">
        <ele>44.358032226562</ele>
        <time>2012-04-16T09:01:05Z</time>
      </trkpt>
      <trkpt lat="47.98893" lon="-2.65147">
        <ele>42.916015625</ele>
        <time>2012-04-16T09:01:19Z</time>
      </trkpt>
      <trkpt lat="47.98912" lon="-2.65205">
        <ele>42.435424804688</ele>
        <time>2012-04-16T09:01:31Z</time>
      </trkpt>
      <trkpt lat="47.9895" lon="-2.65317">
        <ele>42.435424804688</ele>
        <time>2012-04-16T09:01:52Z</time>
      </trkpt>
      <trkpt lat="47.98979" lon="-2.65363">
        <ele>42.916015625</ele>
        <time>2012-04-16T09:02:02Z</time>
      </trkpt>
      <trkpt lat="47.99009" lon="-2.65406">
        <ele>45.799926757812</ele>
        <time>2012-04-16T09:02:12Z</time>
      </trkpt>
      <trkpt lat="47.99026" lon="-2.65423">
        <ele>47.241821289062</ele>
        <time>2012-04-16T09:02:16Z</time>
      </trkpt>
      <trkpt lat="47.99103" lon="-2.655">
        <ele>46.76123046875</ele>
        <time>2012-04-16T09:02:35Z</time>
      </trkpt>
      <trkpt lat="47.99202" lon="-2.65558">
        <ele>46.280639648438</ele>
        <time>2012-04-16T09:02:57Z</time>
      </trkpt>
      <trkpt lat="47.99283" lon="-2.6559">
        <ele>48.203369140625</ele>
        <time>2012-04-16T09:03:18Z</time>
      </trkpt>
      <trkpt lat="47.99343" lon="-2.65616">
        <ele>46.280639648438</ele>
        <time>2012-04-16T09:03:31Z</time>
      </trkpt>
      <trkpt lat="47.99386" lon="-2.65614">
        <ele>45.799926757812</ele>
        <time>2012-04-16T09:03:41Z</time>
      </trkpt>
      <trkpt lat="47.99448" lon="-2.65604">
        <ele>44.838623046875</ele>
        <time>2012-04-16T09:03:54Z</time>
      </trkpt>
      <trkpt lat="47.99526" lon="-2.65527">
        <ele>44.358032226562</ele>
        <time>2012-04-16T09:04:13Z</time>
      </trkpt>
      <trkpt lat="47.99529" lon="-2.65523">
        <ele>44.838623046875</ele>
        <time>2012-04-16T09:04:14Z</time>
      </trkpt>
      <trkpt lat="47.99582" lon="-2.6548">
        <ele>44.358032226562</ele>
        <time>2012-04-16T09:04:29Z</time>
      </trkpt>
      <trkpt lat="47.9959" lon="-2.65479">
        <ele>44.358032226562</ele>
        <time>2012-04-16T09:04:31Z</time>
      </trkpt>
      <trkpt lat="47.99664" lon="-2.6544">
        <ele>42.435424804688</ele>
        <time>2012-04-16T09:04:49Z</time>
      </trkpt>
      <trkpt lat="47.99715" lon="-2.65413">
        <ele>37.148071289062</ele>
        <time>2012-04-16T09:05:02Z</time>
      </trkpt>
      <trkpt lat="47.99735" lon="-2.65402">
        <ele>36.66748046875</ele>
        <time>2012-04-16T09:05:13Z</time>
      </trkpt>
      <trkpt lat="47.99759" lon="-2.65389">
        <ele>37.148071289062</ele>
        <time>2012-04-16T09:07:59Z</time>
      </trkpt>
      <trkpt lat="47.99804" lon="-2.65374">
        <ele>38.590087890625</ele>
        <time>2012-04-16T09:08:14Z</time>
      </trkpt>
      <trkpt lat="47.99842" lon="-2.65356">
        <ele>40.512817382812</ele>
        <time>2012-04-16T09:08:25Z</time>
      </trkpt>
      <trkpt lat="47.99881" lon="-2.65332">
        <ele>42.916015625</ele>
        <time>2012-04-16T09:08:36Z</time>
      </trkpt>
      <trkpt lat="47.99901" lon="-2.6532">
        <ele>45.319213867188</ele>
        <time>2012-04-16T09:08:44Z</time>
      </trkpt>
      <trkpt lat="47.99912" lon="-2.65315">
        <ele>44.838623046875</ele>
        <time>2012-04-16T09:08:49Z</time>
      </trkpt>
      <trkpt lat="47.99958" lon="-2.65295">
        <ele>43.396606445312</ele>
        <time>2012-04-16T09:09:03Z</time>
      </trkpt>
      <trkpt lat="48.00026" lon="-2.65271">
        <ele>43.396606445312</ele>
        <time>2012-04-16T09:09:21Z</time>
      </trkpt>
      <trkpt lat="48.00126" lon="-2.6523">
        <ele>43.396606445312</ele>
        <time>2012-04-16T09:09:45Z</time>
      </trkpt>
      <trkpt lat="48.00226" lon="-2.65197">
        <ele>41.954711914062</ele>
        <time>2012-04-16T09:10:07Z</time>
      </trkpt>
      <trkpt lat="48.0028" lon="-2.65244">
        <ele>41.954711914062</ele>
        <time>2012-04-16T09:10:24Z</time>
      </trkpt>
      <trkpt lat="48.00295" lon="-2.65278">
        <ele>42.435424804688</ele>
        <time>2012-04-16T09:10:31Z</time>
      </trkpt>
      <trkpt lat="48.00341" lon="-2.65379">
        <ele>42.916015625</ele>
        <time>2012-04-16T09:10:49Z</time>
      </trkpt>
      <trkpt lat="48.0039" lon="-2.65534">
        <ele>41.473999023438</ele>
        <time>2012-04-16T09:11:15Z</time>
      </trkpt>
      <trkpt lat="48.00435" lon="-2.65705">
        <ele>43.877319335938</ele>
        <time>2012-04-16T09:11:43Z</time>
      </trkpt>
      <trkpt lat="48.00482" lon="-2.65868">
        <ele>43.877319335938</ele>
        <time>2012-04-16T09:12:09Z</time>
      </trkpt>
      <trkpt lat="48.00556" lon="-2.65939">
        <ele>44.358032226562</ele>
        <time>2012-04-16T09:12:25Z</time>
      </trkpt>
      <trkpt lat="48.00652" lon="-2.6596">
        <ele>44.838623046875</ele>
        <time>2012-04-16T09:12:43Z</time>
      </trkpt>
      <trkpt lat="48.0072" lon="-2.65967">
        <ele>44.358032226562</ele>
        <time>2012-04-16T09:13:00Z</time>
      </trkpt>
      <trkpt lat="48.00759" lon="-2.65971">
        <ele>42.435424804688</ele>
        <time>2012-04-16T09:13:09Z</time>
      </trkpt>
      <trkpt lat="48.00791" lon="-2.65979">
        <ele>41.473999023438</ele>
        <time>2012-04-16T09:13:17Z</time>
      </trkpt>
      <trkpt lat="48.00871" lon="-2.66011">
        <ele>41.954711914062</ele>
        <time>2012-04-16T09:13:36Z</time>
      </trkpt>
      <trkpt lat="48.00871" lon="-2.66011">
        <ele>41.954711914062</ele>
        <time>2012-04-16T09:13:37Z</time>
      </trkpt>
      <trkpt lat="48.00889" lon="-2.66037">
        <ele>40.993408203125</ele>
        <time>2012-04-16T09:13:44Z</time>
      </trkpt>
      <trkpt lat="48.00911" lon="-2.66093">
        <ele>41.473999023438</ele>
        <time>2012-04-16T09:13:57Z</time>
      </trkpt>
      <trkpt lat="48.00943" lon="-2.66186">
        <ele>41.473999023438</ele>
        <time>2012-04-16T09:14:13Z</time>
      </trkpt>
      <trkpt lat="48.01023" lon="-2.66285">
        <ele>39.55126953125</ele>
        <time>2012-04-16T09:14:34Z</time>
      </trkpt>
      <trkpt lat="48.01038" lon="-2.66365">
        <ele>39.55126953125</ele>
        <time>2012-04-16T09:14:51Z</time>
      </trkpt>
      <trkpt lat="48.01035" lon="-2.66375">
        <ele>39.55126953125</ele>
        <time>2012-04-16T09:14:53Z</time>
      </trkpt>
      <trkpt lat="48.01008" lon="-2.66476">
        <ele>40.512817382812</ele>
        <time>2012-04-16T09:15:12Z</time>
      </trkpt>
      <trkpt lat="48.00964" lon="-2.66616">
        <ele>41.473999023438</ele>
        <time>2012-04-16T09:15:36Z</time>
      </trkpt>
      <trkpt lat="48.00939" lon="-2.66758">
        <ele>40.993408203125</ele>
        <time>2012-04-16T09:15:56Z</time>
      </trkpt>
      <trkpt lat="48.00922" lon="-2.66895">
        <ele>40.032104492188</ele>
        <time>2012-04-16T09:16:16Z</time>
      </trkpt>
      <trkpt lat="48.00916" lon="-2.66948">
        <ele>40.512817382812</ele>
        <time>2012-04-16T09:16:26Z</time>
      </trkpt>
      <trkpt lat="48.00915" lon="-2.66952">
        <ele>40.512817382812</ele>
        <time>2012-04-16T09:16:28Z</time>
      </trkpt>
      <trkpt lat="48.00915" lon="-2.67009">
        <ele>41.473999023438</ele>
        <time>2012-04-16T09:16:41Z</time>
      </trkpt>
      <trkpt lat="48.00916" lon="-2.67083">
        <ele>41.473999023438</ele>
        <time>2012-04-16T09:16:54Z</time>
      </trkpt>
      <trkpt lat="48.00918" lon="-2.67161">
        <ele>41.954711914062</ele>
        <time>2012-04-16T09:16:58Z</time>
      </trkpt>
      <trkpt lat="48.00942" lon="-2.67094">
        <ele>41.473999023438</ele>
        <time>2012-04-16T09:17:01Z</time>
      </trkpt>
      <trkpt lat="48.00917" lon="-2.67114">
        <ele>40.032104492188</ele>
        <time>2012-04-16T09:17:05Z</time>
      </trkpt>
      <trkpt lat="48.0099" lon="-2.67178">
        <ele>40.512817382812</ele>
        <time>2012-04-16T09:17:17Z</time>
      </trkpt>
      <trkpt lat="48.01001" lon="-2.67197">
        <ele>40.993408203125</ele>
        <time>2012-04-16T09:17:21Z</time>
      </trkpt>
      <trkpt lat="48.0106" lon="-2.67265">
        <ele>42.916015625</ele>
        <time>2012-04-16T09:17:40Z</time>
      </trkpt>
      <trkpt lat="48.01062" lon="-2.67267">
        <ele>43.396606445312</ele>
        <time>2012-04-16T09:17:41Z</time>
      </trkpt>
      <trkpt lat="48.01071" lon="-2.67262">
        <ele>43.877319335938</ele>
        <time>2012-04-16T09:17:45Z</time>
      </trkpt>
      <trkpt lat="48.01079" lon="-2.67244">
        <ele>43.396606445312</ele>
        <time>2012-04-16T09:17:52Z</time>
      </trkpt>
      <trkpt lat="48.01092" lon="-2.67256">
        <ele>43.396606445312</ele>
        <time>2012-04-16T09:18:00Z</time>
      </trkpt>
      <trkpt lat="48.01133" lon="-2.67295">
        <ele>43.396606445312</ele>
        <time>2012-04-16T09:18:17Z</time>
      </trkpt>
      <trkpt lat="48.01171" lon="-2.67335">
        <ele>44.358032226562</ele>
        <time>2012-04-16T09:18:33Z</time>
      </trkpt>
      <trkpt lat="48.01269" lon="-2.6743">
        <ele>45.799926757812</ele>
        <time>2012-04-16T09:19:02Z</time>
      </trkpt>
      <trkpt lat="48.01357" lon="-2.67468">
        <ele>46.76123046875</ele>
        <time>2012-04-16T09:19:25Z</time>
      </trkpt>
      <trkpt lat="48.01444" lon="-2.67536">
        <ele>46.280639648438</ele>
        <time>2012-04-16T09:19:48Z</time>
      </trkpt>
      <trkpt lat="48.01534" lon="-2.6758">
        <ele>47.241821289062</ele>
        <time>2012-04-16T09:20:11Z</time>
      </trkpt>
      <trkpt lat="48.01643" lon="-2.67642">
        <ele>46.76123046875</ele>
        <time>2012-04-16T09:20:38Z</time>
      </trkpt>
      <trkpt lat="48.01754" lon="-2.67739">
        <ele>47.241821289062</ele>
        <time>2012-04-16T09:21:07Z</time>
      </trkpt>
      <trkpt lat="48.01844" lon="-2.67832">
        <ele>49.16455078125</ele>
        <time>2012-04-16T09:21:34Z</time>
      </trkpt>
      <trkpt lat="48.01898" lon="-2.67889">
        <ele>50.1259765625</ele>
        <time>2012-04-16T09:21:52Z</time>
      </trkpt>
      <trkpt lat="48.01973" lon="-2.67969">
        <ele>47.241821289062</ele>
        <time>2012-04-16T09:22:14Z</time>
      </trkpt>
      <trkpt lat="48.02033" lon="-2.68041">
        <ele>47.722534179688</ele>
        <time>2012-04-16T09:22:33Z</time>
      </trkpt>
      <trkpt lat="48.02043" lon="-2.68061">
        <ele>47.722534179688</ele>
        <time>2012-04-16T09:22:37Z</time>
      </trkpt>
      <trkpt lat="48.02097" lon="-2.68213">
        <ele>46.76123046875</ele>
        <time>2012-04-16T09:23:03Z</time>
      </trkpt>
      <trkpt lat="48.02099" lon="-2.68219">
        <ele>47.241821289062</ele>
        <time>2012-04-16T09:23:04Z</time>
      </trkpt>
      <trkpt lat="48.02182" lon="-2.68349">
        <ele>48.683959960938</ele>
        <time>2012-04-16T09:23:31Z</time>
      </trkpt>
      <trkpt lat="48.02214" lon="-2.68445">
        <ele>49.645263671875</ele>
        <time>2012-04-16T09:23:48Z</time>
      </trkpt>
      <trkpt lat="48.02229" lon="-2.68561">
        <ele>49.645263671875</ele>
        <time>2012-04-16T09:24:06Z</time>
      </trkpt>
      <trkpt lat="48.02211" lon="-2.68714">
        <ele>49.645263671875</ele>
        <time>2012-04-16T09:24:29Z</time>
      </trkpt>
      <trkpt lat="48.02212" lon="-2.68785">
        <ele>52.048583984375</ele>
        <time>2012-04-16T09:24:45Z</time>
      </trkpt>
      <trkpt lat="48.02216" lon="-2.68791">
        <ele>52.529174804688</ele>
        <time>2012-04-16T09:24:48Z</time>
      </trkpt>
      <trkpt lat="48.0222" lon="-2.68843">
        <ele>51.087158203125</ele>
        <time>2012-04-16T09:25:01Z</time>
      </trkpt>
      <trkpt lat="48.02199" lon="-2.68998">
        <ele>49.645263671875</ele>
        <time>2012-04-16T09:25:26Z</time>
      </trkpt>
      <trkpt lat="48.02224" lon="-2.69145">
        <ele>49.16455078125</ele>
        <time>2012-04-16T09:25:51Z</time>
      </trkpt>
      <trkpt lat="48.02256" lon="-2.69336">
        <ele>49.645263671875</ele>
        <time>2012-04-16T09:26:22Z</time>
      </trkpt>
      <trkpt lat="48.02299" lon="-2.69587">
        <ele>48.683959960938</ele>
        <time>2012-04-16T09:27:01Z</time>
      </trkpt>
      <trkpt lat="48.02347" lon="-2.69789">
        <ele>48.203369140625</ele>
        <time>2012-04-16T09:27:30Z</time>
      </trkpt>
      <trkpt lat="48.02435" lon="-2.6989">
        <ele>48.203369140625</ele>
        <time>2012-04-16T09:27:51Z</time>
      </trkpt>
      <trkpt lat="48.02537" lon="-2.69986">
        <ele>48.683959960938</ele>
        <time>2012-04-16T09:28:17Z</time>
      </trkpt>
      <trkpt lat="48.0266" lon="-2.70102">
        <ele>49.645263671875</ele>
        <time>2012-04-16T09:28:50Z</time>
      </trkpt>
      <trkpt lat="48.02739" lon="-2.70175">
        <ele>52.048583984375</ele>
        <time>2012-04-16T09:29:14Z</time>
      </trkpt>
      <trkpt lat="48.02745" lon="-2.70181">
        <ele>52.048583984375</ele>
        <time>2012-04-16T09:29:17Z</time>
      </trkpt>
      <trkpt lat="48.0275" lon="-2.70186">
        <ele>53.009765625</ele>
        <time>2012-04-16T09:29:21Z</time>
      </trkpt>
      <trkpt lat="48.02755" lon="-2.7019">
        <ele>53.490478515625</ele>
        <time>2012-04-16T09:29:25Z</time>
      </trkpt>
      <trkpt lat="48.02765" lon="-2.702">
        <ele>53.009765625</ele>
        <time>2012-04-16T09:29:32Z</time>
      </trkpt>
      <trkpt lat="48.0282" lon="-2.70253">
        <ele>53.009765625</ele>
        <time>2012-04-16T09:29:52Z</time>
      </trkpt>
      <trkpt lat="48.02916" lon="-2.70345">
        <ele>51.56787109375</ele>
        <time>2012-04-16T09:30:21Z</time>
      </trkpt>
      <trkpt lat="48.03012" lon="-2.70437">
        <ele>51.087158203125</ele>
        <time>2012-04-16T09:30:49Z</time>
      </trkpt>
      <trkpt lat="48.03129" lon="-2.70549">
        <ele>50.1259765625</ele>
        <time>2012-04-16T09:31:22Z</time>
      </trkpt>
      <trkpt lat="48.03232" lon="-2.70649">
        <ele>50.1259765625</ele>
        <time>2012-04-16T09:31:51Z</time>
      </trkpt>
      <trkpt lat="48.03337" lon="-2.7075">
        <ele>50.606567382812</ele>
        <time>2012-04-16T09:32:20Z</time>
      </trkpt>
      <trkpt lat="48.03434" lon="-2.70844">
        <ele>52.048583984375</ele>
        <time>2012-04-16T09:32:47Z</time>
      </trkpt>
      <trkpt lat="48.03511" lon="-2.70918">
        <ele>53.97119140625</ele>
        <time>2012-04-16T09:33:12Z</time>
      </trkpt>
      <trkpt lat="48.03513" lon="-2.70919">
        <ele>53.97119140625</ele>
        <time>2012-04-16T09:33:13Z</time>
      </trkpt>
      <trkpt lat="48.03519" lon="-2.70925">
        <ele>54.932373046875</ele>
        <time>2012-04-16T09:33:18Z</time>
      </trkpt>
      <trkpt lat="48.03525" lon="-2.70931">
        <ele>54.932373046875</ele>
        <time>2012-04-16T09:33:21Z</time>
      </trkpt>
      <trkpt lat="48.03565" lon="-2.70969">
        <ele>53.009765625</ele>
        <time>2012-04-16T09:33:36Z</time>
      </trkpt>
      <trkpt lat="48.03605" lon="-2.71008">
        <ele>54.932373046875</ele>
        <time>2012-04-16T09:33:52Z</time>
      </trkpt>
      <trkpt lat="48.03693" lon="-2.71093">
        <ele>54.451782226562</ele>
        <time>2012-04-16T09:34:18Z</time>
      </trkpt>
      <trkpt lat="48.03776" lon="-2.71173">
        <ele>54.451782226562</ele>
        <time>2012-04-16T09:34:47Z</time>
      </trkpt>
      <trkpt lat="48.03897" lon="-2.71288">
        <ele>53.490478515625</ele>
        <time>2012-04-16T09:35:13Z</time>
      </trkpt>
      <trkpt lat="48.04026" lon="-2.7141">
        <ele>53.490478515625</ele>
        <time>2012-04-16T09:35:47Z</time>
      </trkpt>
      <trkpt lat="48.0411" lon="-2.71491">
        <ele>54.932373046875</ele>
        <time>2012-04-16T09:36:09Z</time>
      </trkpt>
      <trkpt lat="48.04175" lon="-2.71585">
        <ele>54.932373046875</ele>
        <time>2012-04-16T09:36:30Z</time>
      </trkpt>
      <trkpt lat="48.04278" lon="-2.71763">
        <ele>54.932373046875</ele>
        <time>2012-04-16T09:37:05Z</time>
      </trkpt>
      <trkpt lat="48.0434" lon="-2.71882">
        <ele>54.451782226562</ele>
        <time>2012-04-16T09:37:28Z</time>
      </trkpt>
      <trkpt lat="48.04358" lon="-2.71916">
        <ele>54.932373046875</ele>
        <time>2012-04-16T09:37:43Z</time>
      </trkpt>
      <trkpt lat="48.04358" lon="-2.71916">
        <ele>55.893798828125</ele>
        <time>2012-04-16T09:39:14Z</time>
      </trkpt>
      <trkpt lat="48.04372" lon="-2.71944">
        <ele>55.893798828125</ele>
        <time>2012-04-16T09:41:50Z</time>
      </trkpt>
      <trkpt lat="48.04377" lon="-2.71953">
        <ele>54.932373046875</ele>
        <time>2012-04-16T09:42:04Z</time>
      </trkpt>
      <trkpt lat="48.04377" lon="-2.71953">
        <ele>54.932373046875</ele>
        <time>2012-04-16T09:44:49Z</time>
      </trkpt>
      <trkpt lat="48.04389" lon="-2.71976">
        <ele>54.451782226562</ele>
        <time>2012-04-16T09:46:54Z</time>
      </trkpt>
      <trkpt lat="48.04433" lon="-2.7206">
        <ele>53.97119140625</ele>
        <time>2012-04-16T09:47:13Z</time>
      </trkpt>
      <trkpt lat="48.04521" lon="-2.72229">
        <ele>53.97119140625</ele>
        <time>2012-04-16T09:47:46Z</time>
      </trkpt>
      <trkpt lat="48.04587" lon="-2.72354">
        <ele>53.97119140625</ele>
        <time>2012-04-16T09:48:10Z</time>
      </trkpt>
      <trkpt lat="48.04676" lon="-2.72524">
        <ele>54.451782226562</ele>
        <time>2012-04-16T09:48:42Z</time>
      </trkpt>
      <trkpt lat="48.04764" lon="-2.72692">
        <ele>53.97119140625</ele>
        <time>2012-04-16T09:49:14Z</time>
      </trkpt>
      <trkpt lat="48.04831" lon="-2.72734">
        <ele>56.37451171875</ele>
        <time>2012-04-16T09:49:34Z</time>
      </trkpt>
      <trkpt lat="48.04833" lon="-2.72732">
        <ele>57.335815429688</ele>
        <time>2012-04-16T09:49:40Z</time>
      </trkpt>
      <trkpt lat="48.0483" lon="-2.72815">
        <ele>56.855102539062</ele>
        <time>2012-04-16T09:49:53Z</time>
      </trkpt>
      <trkpt lat="48.04873" lon="-2.72893">
        <ele>56.855102539062</ele>
        <time>2012-04-16T09:50:10Z</time>
      </trkpt>
      <trkpt lat="48.04966" lon="-2.73058">
        <ele>56.855102539062</ele>
        <time>2012-04-16T09:50:44Z</time>
      </trkpt>
      <trkpt lat="48.05062" lon="-2.73241">
        <ele>57.335815429688</ele>
        <time>2012-04-16T09:51:20Z</time>
      </trkpt>
      <trkpt lat="48.05206" lon="-2.73388">
        <ele>57.335815429688</ele>
        <time>2012-04-16T09:51:55Z</time>
      </trkpt>
      <trkpt lat="48.05257" lon="-2.73461">
        <ele>58.297119140625</ele>
        <time>2012-04-16T09:52:12Z</time>
      </trkpt>
      <trkpt lat="48.05288" lon="-2.73484">
        <ele>60.700317382812</ele>
        <time>2012-04-16T09:52:21Z</time>
      </trkpt>
      <trkpt lat="48.05296" lon="-2.73487">
        <ele>60.700317382812</ele>
        <time>2012-04-16T09:52:23Z</time>
      </trkpt>
      <trkpt lat="48.05328" lon="-2.73491">
        <ele>61.181030273438</ele>
        <time>2012-04-16T09:52:31Z</time>
      </trkpt>
      <trkpt lat="48.05376" lon="-2.7348">
        <ele>61.661743164062</ele>
        <time>2012-04-16T09:52:42Z</time>
      </trkpt>
      <trkpt lat="48.05381" lon="-2.73478">
        <ele>61.661743164062</ele>
        <time>2012-04-16T09:52:43Z</time>
      </trkpt>
      <trkpt lat="48.05442" lon="-2.73452">
        <ele>62.142333984375</ele>
        <time>2012-04-16T09:52:57Z</time>
      </trkpt>
      <trkpt lat="48.05541" lon="-2.73408">
        <ele>60.700317382812</ele>
        <time>2012-04-16T09:53:20Z</time>
      </trkpt>
      <trkpt lat="48.056" lon="-2.73402">
        <ele>58.297119140625</ele>
        <time>2012-04-16T09:53:33Z</time>
      </trkpt>
      <trkpt lat="48.05657" lon="-2.73385">
        <ele>60.2197265625</ele>
        <time>2012-04-16T09:53:46Z</time>
      </trkpt>
      <trkpt lat="48.05717" lon="-2.73348">
        <ele>60.2197265625</ele>
        <time>2012-04-16T09:54:01Z</time>
      </trkpt>
      <trkpt lat="48.05785" lon="-2.73311">
        <ele>58.297119140625</ele>
        <time>2012-04-16T09:54:18Z</time>
      </trkpt>
      <trkpt lat="48.05799" lon="-2.73313">
        <ele>59.258422851562</ele>
        <time>2012-04-16T09:54:21Z</time>
      </trkpt>
      <trkpt lat="48.05815" lon="-2.73319">
        <ele>58.297119140625</ele>
        <time>2012-04-16T09:54:25Z</time>
      </trkpt>
      <trkpt lat="48.05881" lon="-2.73377">
        <ele>57.335815429688</ele>
        <time>2012-04-16T09:54:47Z</time>
      </trkpt>
      <trkpt lat="48.05919" lon="-2.7341">
        <ele>57.816528320312</ele>
        <time>2012-04-16T09:55:02Z</time>
      </trkpt>
      <trkpt lat="48.05973" lon="-2.73457">
        <ele>57.335815429688</ele>
        <time>2012-04-16T09:55:24Z</time>
      </trkpt>
      <trkpt lat="48.06016" lon="-2.73496">
        <ele>57.335815429688</ele>
        <time>2012-04-16T09:55:42Z</time>
      </trkpt>
      <trkpt lat="48.06063" lon="-2.73551">
        <ele>56.37451171875</ele>
        <time>2012-04-16T09:56:01Z</time>
      </trkpt>
      <trkpt lat="48.06085" lon="-2.73577">
        <ele>56.855102539062</ele>
        <time>2012-04-16T09:56:16Z</time>
      </trkpt>
      <trkpt lat="48.06084" lon="-2.73578">
        <ele>56.855102539062</ele>
        <time>2012-04-16T09:58:48Z</time>
      </trkpt>
      <trkpt lat="48.06093" lon="-2.73587">
        <ele>56.37451171875</ele>
        <time>2012-04-16T09:59:50Z</time>
      </trkpt>
      <trkpt lat="48.06161" lon="-2.73667">
        <ele>55.893798828125</ele>
        <time>2012-04-16T10:00:13Z</time>
      </trkpt>
      <trkpt lat="48.06193" lon="-2.73707">
        <ele>56.855102539062</ele>
        <time>2012-04-16T10:00:23Z</time>
      </trkpt>
      <trkpt lat="48.0624" lon="-2.73793">
        <ele>59.258422851562</ele>
        <time>2012-04-16T10:00:42Z</time>
      </trkpt>
      <trkpt lat="48.06263" lon="-2.73907">
        <ele>58.297119140625</ele>
        <time>2012-04-16T10:01:02Z</time>
      </trkpt>
      <trkpt lat="48.06291" lon="-2.74045">
        <ele>58.297119140625</ele>
        <time>2012-04-16T10:01:25Z</time>
      </trkpt>
      <trkpt lat="48.06319" lon="-2.74187">
        <ele>57.816528320312</ele>
        <time>2012-04-16T10:01:48Z</time>
      </trkpt>
      <trkpt lat="48.06322" lon="-2.74193">
        <ele>58.297119140625</ele>
        <time>2012-04-16T10:01:49Z</time>
      </trkpt>
      <trkpt lat="48.06388" lon="-2.74299">
        <ele>58.297119140625</ele>
        <time>2012-04-16T10:02:11Z</time>
      </trkpt>
      <trkpt lat="48.06427" lon="-2.74477">
        <ele>57.816528320312</ele>
        <time>2012-04-16T10:02:36Z</time>
      </trkpt>
      <trkpt lat="48.06504" lon="-2.74619">
        <ele>58.777709960938</ele>
        <time>2012-04-16T10:03:03Z</time>
      </trkpt>
      <trkpt lat="48.06513" lon="-2.74635">
        <ele>58.777709960938</ele>
        <time>2012-04-16T10:03:06Z</time>
      </trkpt>
      <trkpt lat="48.06639" lon="-2.74684">
        <ele>57.816528320312</ele>
        <time>2012-04-16T10:03:29Z</time>
      </trkpt>
      <trkpt lat="48.06669" lon="-2.74783">
        <ele>57.335815429688</ele>
        <time>2012-04-16T10:03:47Z</time>
      </trkpt>
      <trkpt lat="48.06669" lon="-2.74873">
        <ele>56.855102539062</ele>
        <time>2012-04-16T10:04:02Z</time>
      </trkpt>
      <trkpt lat="48.06693" lon="-2.74899">
        <ele>57.816528320312</ele>
        <time>2012-04-16T10:04:17Z</time>
      </trkpt>
      <trkpt lat="48.06716" lon="-2.74922">
        <ele>58.297119140625</ele>
        <time>2012-04-16T10:04:32Z</time>
      </trkpt>
      <trkpt lat="48.06736" lon="-2.7493">
        <ele>58.297119140625</ele>
        <time>2012-04-16T10:04:42Z</time>
      </trkpt>
      <trkpt lat="48.06745" lon="-2.74934">
        <ele>58.297119140625</ele>
        <time>2012-04-16T10:04:47Z</time>
      </trkpt>
      <trkpt lat="48.06758" lon="-2.74956">
        <ele>58.777709960938</ele>
        <time>2012-04-16T10:05:01Z</time>
      </trkpt>
      <trkpt lat="48.06776" lon="-2.7495">
        <ele>59.739135742188</ele>
        <time>2012-04-16T10:05:18Z</time>
      </trkpt>
      <trkpt lat="48.06806" lon="-2.74941">
        <ele>59.739135742188</ele>
        <time>2012-04-16T10:05:27Z</time>
      </trkpt>
      <trkpt lat="48.06806" lon="-2.74941">
        <ele>59.739135742188</ele>
        <time>2012-04-16T10:05:35Z</time>
      </trkpt>
      <trkpt lat="48.0681" lon="-2.74957">
        <ele>59.739135742188</ele>
        <time>2012-04-16T10:05:38Z</time>
      </trkpt>
      <trkpt lat="48.0681" lon="-2.74959">
        <ele>59.258422851562</ele>
        <time>2012-04-16T10:05:42Z</time>
      </trkpt>
      <trkpt lat="48.06814" lon="-2.74996">
        <ele>58.297119140625</ele>
        <time>2012-04-16T10:05:49Z</time>
      </trkpt>
      <trkpt lat="48.06832" lon="-2.74987">
        <ele>56.855102539062</ele>
        <time>2012-04-16T10:05:59Z</time>
      </trkpt>
      <trkpt lat="48.06833" lon="-2.74986">
        <ele>56.855102539062</ele>
        <time>2012-04-16T10:06:00Z</time>
      </trkpt>
      <trkpt lat="48.06836" lon="-2.74984">
        <ele>56.855102539062</ele>
        <time>2012-04-16T10:06:02Z</time>
      </trkpt>
      <trkpt lat="48.06844" lon="-2.74979">
        <ele>56.37451171875</ele>
        <time>2012-04-16T10:06:06Z</time>
      </trkpt>
      <trkpt lat="48.06853" lon="-2.74973">
        <ele>55.893798828125</ele>
        <time>2012-04-16T10:06:18Z</time>
      </trkpt>
      <trkpt lat="48.06853" lon="-2.74973">
        <ele>55.893798828125</ele>
        <time>2012-04-16T10:13:47Z</time>
      </trkpt>
      <trkpt lat="48.06853" lon="-2.74973">
        <ele>55.893798828125</ele>
        <time>2012-04-16T10:14:00Z</time>
      </trkpt>
      <trkpt lat="48.0689" lon="-2.74954">
        <ele>54.932373046875</ele>
        <time>2012-04-16T10:14:17Z</time>
      </trkpt>
      <trkpt lat="48.06926" lon="-2.74958">
        <ele>54.932373046875</ele>
        <time>2012-04-16T10:14:34Z</time>
      </trkpt>
      <trkpt lat="48.0695" lon="-2.74986">
        <ele>53.97119140625</ele>
        <time>2012-04-16T10:14:43Z</time>
      </trkpt>
      <trkpt lat="48.06986" lon="-2.75086">
        <ele>55.4130859375</ele>
        <time>2012-04-16T10:15:08Z</time>
      </trkpt>
      <trkpt lat="48.06986" lon="-2.75087">
        <ele>55.893798828125</ele>
        <time>2012-04-16T10:15:10Z</time>
      </trkpt>
      <trkpt lat="48.06992" lon="-2.75139">
        <ele>56.37451171875</ele>
        <time>2012-04-16T10:15:25Z</time>
      </trkpt>
      <trkpt lat="48.07019" lon="-2.75268">
        <ele>54.932373046875</ele>
        <time>2012-04-16T10:15:47Z</time>
      </trkpt>
      <trkpt lat="48.07041" lon="-2.75338">
        <ele>55.893798828125</ele>
        <time>2012-04-16T10:16:02Z</time>
      </trkpt>
      <trkpt lat="48.07094" lon="-2.75437">
        <ele>59.258422851562</ele>
        <time>2012-04-16T10:16:24Z</time>
      </trkpt>
      <trkpt lat="48.07131" lon="-2.75493">
        <ele>58.777709960938</ele>
        <time>2012-04-16T10:16:41Z</time>
      </trkpt>
      <trkpt lat="48.07176" lon="-2.75545">
        <ele>58.297119140625</ele>
        <time>2012-04-16T10:16:58Z</time>
      </trkpt>
      <trkpt lat="48.07237" lon="-2.75596">
        <ele>57.335815429688</ele>
        <time>2012-04-16T10:17:17Z</time>
      </trkpt>
      <trkpt lat="48.07329" lon="-2.75653">
        <ele>57.335815429688</ele>
        <time>2012-04-16T10:17:43Z</time>
      </trkpt>
      <trkpt lat="48.07365" lon="-2.7564">
        <ele>57.335815429688</ele>
        <time>2012-04-16T10:17:54Z</time>
      </trkpt>
      <trkpt lat="48.07383" lon="-2.75625">
        <ele>56.855102539062</ele>
        <time>2012-04-16T10:18:06Z</time>
      </trkpt>
      <trkpt lat="48.07417" lon="-2.75663">
        <ele>57.816528320312</ele>
        <time>2012-04-16T10:18:20Z</time>
      </trkpt>
      <trkpt lat="48.07476" lon="-2.75676">
        <ele>55.893798828125</ele>
        <time>2012-04-16T10:18:36Z</time>
      </trkpt>
      <trkpt lat="48.07524" lon="-2.7575">
        <ele>56.37451171875</ele>
        <time>2012-04-16T10:18:52Z</time>
      </trkpt>
      <trkpt lat="48.07572" lon="-2.7581">
        <ele>57.335815429688</ele>
        <time>2012-04-16T10:19:11Z</time>
      </trkpt>
      <trkpt lat="48.07618" lon="-2.75874">
        <ele>59.739135742188</ele>
        <time>2012-04-16T10:19:27Z</time>
      </trkpt>
      <trkpt lat="48.07713" lon="-2.75868">
        <ele>60.2197265625</ele>
        <time>2012-04-16T10:19:44Z</time>
      </trkpt>
      <trkpt lat="48.07745" lon="-2.75897">
        <ele>61.661743164062</ele>
        <time>2012-04-16T10:19:53Z</time>
      </trkpt>
      <trkpt lat="48.07838" lon="-2.7591">
        <ele>61.661743164062</ele>
        <time>2012-04-16T10:20:12Z</time>
      </trkpt>
      <trkpt lat="48.07926" lon="-2.75997">
        <ele>59.739135742188</ele>
        <time>2012-04-16T10:20:38Z</time>
      </trkpt>
      <trkpt lat="48.07929" lon="-2.76161">
        <ele>60.700317382812</ele>
        <time>2012-04-16T10:20:55Z</time>
      </trkpt>
      <trkpt lat="48.08005" lon="-2.76274">
        <ele>58.777709960938</ele>
        <time>2012-04-16T10:21:22Z</time>
      </trkpt>
      <trkpt lat="48.08057" lon="-2.7634">
        <ele>58.297119140625</ele>
        <time>2012-04-16T10:21:40Z</time>
      </trkpt>
      <trkpt lat="48.08098" lon="-2.76387">
        <ele>59.258422851562</ele>
        <time>2012-04-16T10:21:54Z</time>
      </trkpt>
      <trkpt lat="48.08168" lon="-2.76426">
        <ele>58.297119140625</ele>
        <time>2012-04-16T10:22:11Z</time>
      </trkpt>
      <trkpt lat="48.08177" lon="-2.76434">
        <ele>58.777709960938</ele>
        <time>2012-04-16T10:22:14Z</time>
      </trkpt>
      <trkpt lat="48.08192" lon="-2.76448">
        <ele>59.739135742188</ele>
        <time>2012-04-16T10:22:27Z</time>
      </trkpt>
      <trkpt lat="48.08192" lon="-2.76448">
        <ele>60.2197265625</ele>
        <time>2012-04-16T10:22:34Z</time>
      </trkpt>
      <trkpt lat="48.08192" lon="-2.76448">
        <ele>60.700317382812</ele>
        <time>2012-04-16T10:22:38Z</time>
      </trkpt>
      <trkpt lat="48.08244" lon="-2.76556">
        <ele>60.2197265625</ele>
        <time>2012-04-16T10:22:54Z</time>
      </trkpt>
      <trkpt lat="48.0835" lon="-2.76546">
        <ele>60.700317382812</ele>
        <time>2012-04-16T10:23:15Z</time>
      </trkpt>
      <trkpt lat="48.08421" lon="-2.76602">
        <ele>61.181030273438</ele>
        <time>2012-04-16T10:23:35Z</time>
      </trkpt>
      <trkpt lat="48.08491" lon="-2.76653">
        <ele>60.700317382812</ele>
        <time>2012-04-16T10:23:55Z</time>
      </trkpt>
      <trkpt lat="48.08593" lon="-2.76732">
        <ele>60.700317382812</ele>
        <time>2012-04-16T10:24:23Z</time>
      </trkpt>
      <trkpt lat="48.08725" lon="-2.76794">
        <ele>58.777709960938</ele>
        <time>2012-04-16T10:24:53Z</time>
      </trkpt>
      <trkpt lat="48.08759" lon="-2.7686">
        <ele>59.258422851562</ele>
        <time>2012-04-16T10:25:07Z</time>
      </trkpt>
      <trkpt lat="48.08778" lon="-2.76944">
        <ele>59.258422851562</ele>
        <time>2012-04-16T10:25:15Z</time>
      </trkpt>
      <trkpt lat="48.0868" lon="-2.77094">
        <ele>60.2197265625</ele>
        <time>2012-04-16T10:25:42Z</time>
      </trkpt>
      <trkpt lat="48.08675" lon="-2.77112">
        <ele>60.700317382812</ele>
        <time>2012-04-16T10:25:45Z</time>
      </trkpt>
      <trkpt lat="48.08656" lon="-2.77215">
        <ele>61.661743164062</ele>
        <time>2012-04-16T10:26:02Z</time>
      </trkpt>
      <trkpt lat="48.08654" lon="-2.77221">
        <ele>61.661743164062</ele>
        <time>2012-04-16T10:26:03Z</time>
      </trkpt>
      <trkpt lat="48.08648" lon="-2.77261">
        <ele>62.142333984375</ele>
        <time>2012-04-16T10:26:09Z</time>
      </trkpt>
      <trkpt lat="48.08649" lon="-2.77305">
        <ele>62.622924804688</ele>
        <time>2012-04-16T10:26:16Z</time>
      </trkpt>
      <trkpt lat="48.08676" lon="-2.77404">
        <ele>63.103637695312</ele>
        <time>2012-04-16T10:26:34Z</time>
      </trkpt>
      <trkpt lat="48.08692" lon="-2.77457">
        <ele>63.584350585938</ele>
        <time>2012-04-16T10:26:49Z</time>
      </trkpt>
      <trkpt lat="48.08702" lon="-2.77497">
        <ele>63.103637695312</ele>
        <time>2012-04-16T10:26:58Z</time>
      </trkpt>
      <trkpt lat="48.08705" lon="-2.775">
        <ele>63.103637695312</ele>
        <time>2012-04-16T10:27:00Z</time>
      </trkpt>
      <trkpt lat="48.08721" lon="-2.77547">
        <ele>62.622924804688</ele>
        <time>2012-04-16T10:27:12Z</time>
      </trkpt>
      <trkpt lat="48.08757" lon="-2.77584">
        <ele>63.103637695312</ele>
        <time>2012-04-16T10:27:24Z</time>
      </trkpt>
      <trkpt lat="48.08842" lon="-2.77646">
        <ele>63.103637695312</ele>
        <time>2012-04-16T10:27:48Z</time>
      </trkpt>
      <trkpt lat="48.08909" lon="-2.77695">
        <ele>64.065063476562</ele>
        <time>2012-04-16T10:28:06Z</time>
      </trkpt>
      <trkpt lat="48.09006" lon="-2.77751">
        <ele>63.103637695312</ele>
        <time>2012-04-16T10:28:30Z</time>
      </trkpt>
      <trkpt lat="48.09088" lon="-2.7777">
        <ele>62.622924804688</ele>
        <time>2012-04-16T10:28:50Z</time>
      </trkpt>
      <trkpt lat="48.09197" lon="-2.77757">
        <ele>62.622924804688</ele>
        <time>2012-04-16T10:29:16Z</time>
      </trkpt>
      <trkpt lat="48.09275" lon="-2.77752">
        <ele>62.622924804688</ele>
        <time>2012-04-16T10:29:35Z</time>
      </trkpt>
      <trkpt lat="48.09357" lon="-2.77747">
        <ele>62.622924804688</ele>
        <time>2012-04-16T10:29:55Z</time>
      </trkpt>
      <trkpt lat="48.09425" lon="-2.7772">
        <ele>61.661743164062</ele>
        <time>2012-04-16T10:30:13Z</time>
      </trkpt>
      <trkpt lat="48.09464" lon="-2.77704">
        <ele>62.622924804688</ele>
        <time>2012-04-16T10:30:26Z</time>
      </trkpt>
      <trkpt lat="48.09466" lon="-2.77707">
        <ele>62.622924804688</ele>
        <time>2012-04-16T10:30:28Z</time>
      </trkpt>
      <trkpt lat="48.09477" lon="-2.77704">
        <ele>63.584350585938</ele>
        <time>2012-04-16T10:30:34Z</time>
      </trkpt>
      <trkpt lat="48.09482" lon="-2.77688">
        <ele>64.065063476562</ele>
        <time>2012-04-16T10:30:40Z</time>
      </trkpt>
      <trkpt lat="48.09482" lon="-2.77682">
        <ele>64.545654296875</ele>
        <time>2012-04-16T10:30:42Z</time>
      </trkpt>
      <trkpt lat="48.09503" lon="-2.7767">
        <ele>64.065063476562</ele>
        <time>2012-04-16T10:30:49Z</time>
      </trkpt>
      <trkpt lat="48.0957" lon="-2.77669">
        <ele>62.142333984375</ele>
        <time>2012-04-16T10:31:08Z</time>
      </trkpt>
      <trkpt lat="48.09592" lon="-2.77672">
        <ele>61.661743164062</ele>
        <time>2012-04-16T10:31:15Z</time>
      </trkpt>
      <trkpt lat="48.09667" lon="-2.77713">
        <ele>63.584350585938</ele>
        <time>2012-04-16T10:31:35Z</time>
      </trkpt>
      <trkpt lat="48.09741" lon="-2.7779">
        <ele>63.584350585938</ele>
        <time>2012-04-16T10:31:57Z</time>
      </trkpt>
      <trkpt lat="48.09807" lon="-2.77859">
        <ele>63.103637695312</ele>
        <time>2012-04-16T10:32:17Z</time>
      </trkpt>
      <trkpt lat="48.0986" lon="-2.77913">
        <ele>64.065063476562</ele>
        <time>2012-04-16T10:32:33Z</time>
      </trkpt>
      <trkpt lat="48.09933" lon="-2.77943">
        <ele>64.065063476562</ele>
        <time>2012-04-16T10:32:51Z</time>
      </trkpt>
      <trkpt lat="48.09991" lon="-2.77953">
        <ele>62.142333984375</ele>
        <time>2012-04-16T10:33:05Z</time>
      </trkpt>
      <trkpt lat="48.10091" lon="-2.77976">
        <ele>62.622924804688</ele>
        <time>2012-04-16T10:33:29Z</time>
      </trkpt>
      <trkpt lat="48.10198" lon="-2.77993">
        <ele>65.0263671875</ele>
        <time>2012-04-16T10:33:54Z</time>
      </trkpt>
      <trkpt lat="48.10263" lon="-2.78006">
        <ele>65.0263671875</ele>
        <time>2012-04-16T10:34:09Z</time>
      </trkpt>
      <trkpt lat="48.10344" lon="-2.78021">
        <ele>65.987670898438</ele>
        <time>2012-04-16T10:34:30Z</time>
      </trkpt>
      <trkpt lat="48.10389" lon="-2.78032">
        <ele>68.390869140625</ele>
        <time>2012-04-16T10:34:46Z</time>
      </trkpt>
      <trkpt lat="48.10452" lon="-2.7805">
        <ele>68.87158203125</ele>
        <time>2012-04-16T10:35:03Z</time>
      </trkpt>
      <trkpt lat="48.10514" lon="-2.7807">
        <ele>68.390869140625</ele>
        <time>2012-04-16T10:35:20Z</time>
      </trkpt>
      <trkpt lat="48.10564" lon="-2.78136">
        <ele>68.87158203125</ele>
        <time>2012-04-16T10:35:37Z</time>
      </trkpt>
      <trkpt lat="48.10566" lon="-2.78141">
        <ele>68.390869140625</ele>
        <time>2012-04-16T10:35:38Z</time>
      </trkpt>
      <trkpt lat="48.10578" lon="-2.78231">
        <ele>67.4296875</ele>
        <time>2012-04-16T10:35:53Z</time>
      </trkpt>
      <trkpt lat="48.10556" lon="-2.78309">
        <ele>66.948974609375</ele>
        <time>2012-04-16T10:36:09Z</time>
      </trkpt>
      <trkpt lat="48.10529" lon="-2.78387">
        <ele>69.352294921875</ele>
        <time>2012-04-16T10:36:26Z</time>
      </trkpt>
      <trkpt lat="48.10495" lon="-2.78489">
        <ele>69.352294921875</ele>
        <time>2012-04-16T10:36:45Z</time>
      </trkpt>
      <trkpt lat="48.10464" lon="-2.78624">
        <ele>71.755493164062</ele>
        <time>2012-04-16T10:37:09Z</time>
      </trkpt>
      <trkpt lat="48.10458" lon="-2.78721">
        <ele>72.716918945312</ele>
        <time>2012-04-16T10:37:28Z</time>
      </trkpt>
      <trkpt lat="48.10449" lon="-2.78851">
        <ele>73.67822265625</ele>
        <time>2012-04-16T10:37:50Z</time>
      </trkpt>
      <trkpt lat="48.10447" lon="-2.78976">
        <ele>74.158813476562</ele>
        <time>2012-04-16T10:38:12Z</time>
      </trkpt>
      <trkpt lat="48.1045" lon="-2.79036">
        <ele>77.042846679688</ele>
        <time>2012-04-16T10:38:27Z</time>
      </trkpt>
      <trkpt lat="48.10453" lon="-2.79046">
        <ele>78.004028320312</ele>
        <time>2012-04-16T10:38:32Z</time>
      </trkpt>
      <trkpt lat="48.10457" lon="-2.79089">
        <ele>77.042846679688</ele>
        <time>2012-04-16T10:38:46Z</time>
      </trkpt>
      <trkpt lat="48.10456" lon="-2.79099">
        <ele>77.5234375</ele>
        <time>2012-04-16T10:38:50Z</time>
      </trkpt>
      <trkpt lat="48.10466" lon="-2.79203">
        <ele>77.042846679688</ele>
        <time>2012-04-16T10:39:13Z</time>
      </trkpt>
      <trkpt lat="48.10474" lon="-2.79282">
        <ele>78.004028320312</ele>
        <time>2012-04-16T10:39:28Z</time>
      </trkpt>
      <trkpt lat="48.10483" lon="-2.79391">
        <ele>80.88818359375</ele>
        <time>2012-04-16T10:39:52Z</time>
      </trkpt>
      <trkpt lat="48.10487" lon="-2.79438">
        <ele>80.88818359375</ele>
        <time>2012-04-16T10:40:04Z</time>
      </trkpt>
      <trkpt lat="48.10488" lon="-2.7944">
        <ele>79.446044921875</ele>
        <time>2012-04-16T10:40:26Z</time>
      </trkpt>
      <trkpt lat="48.10488" lon="-2.79442">
        <ele>79.926635742188</ele>
        <time>2012-04-16T10:41:15Z</time>
      </trkpt>
      <trkpt lat="48.10486" lon="-2.79449">
        <ele>81.368774414062</ele>
        <time>2012-04-16T10:41:32Z</time>
      </trkpt>
      <trkpt lat="48.10495" lon="-2.79482">
        <ele>82.330078125</ele>
        <time>2012-04-16T10:41:47Z</time>
      </trkpt>
      <trkpt lat="48.10515" lon="-2.79579">
        <ele>81.849365234375</ele>
        <time>2012-04-16T10:42:09Z</time>
      </trkpt>
      <trkpt lat="48.1053" lon="-2.7966">
        <ele>83.291381835938</ele>
        <time>2012-04-16T10:42:26Z</time>
      </trkpt>
      <trkpt lat="48.10533" lon="-2.79805">
        <ele>83.77197265625</ele>
        <time>2012-04-16T10:42:50Z</time>
      </trkpt>
      <trkpt lat="48.10547" lon="-2.79918">
        <ele>83.77197265625</ele>
        <time>2012-04-16T10:43:10Z</time>
      </trkpt>
      <trkpt lat="48.10557" lon="-2.80002">
        <ele>86.17529296875</ele>
        <time>2012-04-16T10:43:26Z</time>
      </trkpt>
      <trkpt lat="48.10567" lon="-2.80083">
        <ele>87.136596679688</ele>
        <time>2012-04-16T10:43:42Z</time>
      </trkpt>
      <trkpt lat="48.10582" lon="-2.80205">
        <ele>86.656005859375</ele>
        <time>2012-04-16T10:44:04Z</time>
      </trkpt>
      <trkpt lat="48.10591" lon="-2.80315">
        <ele>85.694580078125</ele>
        <time>2012-04-16T10:44:23Z</time>
      </trkpt>
      <trkpt lat="48.10591" lon="-2.80404">
        <ele>86.656005859375</ele>
        <time>2012-04-16T10:44:41Z</time>
      </trkpt>
      <trkpt lat="48.1059" lon="-2.80518">
        <ele>87.6171875</ele>
        <time>2012-04-16T10:45:02Z</time>
      </trkpt>
      <trkpt lat="48.10583" lon="-2.80693">
        <ele>90.98193359375</ele>
        <time>2012-04-16T10:45:31Z</time>
      </trkpt>
      <trkpt lat="48.1058" lon="-2.8079">
        <ele>92.423950195312</ele>
        <time>2012-04-16T10:45:51Z</time>
      </trkpt>
      <trkpt lat="48.10589" lon="-2.80917">
        <ele>91.943237304688</ele>
        <time>2012-04-16T10:46:11Z</time>
      </trkpt>
      <trkpt lat="48.10613" lon="-2.81005">
        <ele>93.865844726562</ele>
        <time>2012-04-16T10:46:31Z</time>
      </trkpt>
      <trkpt lat="48.10648" lon="-2.81095">
        <ele>94.8271484375</ele>
        <time>2012-04-16T10:46:50Z</time>
      </trkpt>
      <trkpt lat="48.10672" lon="-2.81149">
        <ele>98.19189453125</ele>
        <time>2012-04-16T10:47:05Z</time>
      </trkpt>
      <trkpt lat="48.10716" lon="-2.81247">
        <ele>100.11450195312</ele>
        <time>2012-04-16T10:47:28Z</time>
      </trkpt>
      <trkpt lat="48.10748" lon="-2.81318">
        <ele>102.037109375</ele>
        <time>2012-04-16T10:47:46Z</time>
      </trkpt>
      <trkpt lat="48.10756" lon="-2.81336">
        <ele>102.037109375</ele>
        <time>2012-04-16T10:48:00Z</time>
      </trkpt>
      <trkpt lat="48.10756" lon="-2.81336">
        <ele>101.07568359375</ele>
        <time>2012-04-16T10:48:38Z</time>
      </trkpt>
      <trkpt lat="48.10756" lon="-2.81336">
        <ele>101.55639648438</ele>
        <time>2012-04-16T10:48:42Z</time>
      </trkpt>
      <trkpt lat="48.10756" lon="-2.81336">
        <ele>103.95971679688</ele>
        <time>2012-04-16T10:48:55Z</time>
      </trkpt>
      <trkpt lat="48.10756" lon="-2.81336">
        <ele>103.47900390625</ele>
        <time>2012-04-16T10:49:12Z</time>
      </trkpt>
      <trkpt lat="48.10756" lon="-2.81336">
        <ele>102.51770019531</ele>
        <time>2012-04-16T10:49:17Z</time>
      </trkpt>
      <trkpt lat="48.10759" lon="-2.81343">
        <ele>100.59509277344</ele>
        <time>2012-04-16T10:49:26Z</time>
      </trkpt>
      <trkpt lat="48.10759" lon="-2.81343">
        <ele>100.11450195312</ele>
        <time>2012-04-16T10:49:42Z</time>
      </trkpt>
      <trkpt lat="48.10759" lon="-2.81343">
        <ele>100.11450195312</ele>
        <time>2012-04-16T10:51:23Z</time>
      </trkpt>
      <trkpt lat="48.10759" lon="-2.81343">
        <ele>99.6337890625</ele>
        <time>2012-04-16T10:57:07Z</time>
      </trkpt>
    </trkseg>
  </trk>
</gpx>